Terminal Aerodrome Forecast
Issued by NWS

Home | Current Version | Previous Version | Graphics & Text | Print | Product List | Glossary On
Versions: 1 2 3 4 5 6 7 8 9 10 11 12 13 14 15 16 17
000
FTUS43 KABR 021700
TAFMBG
TAF
KMBG 021738Z 0218/0318 16021G29KT P6SM SKC
     FM030000 15007KT P6SM OVC100
     FM030700 34020G30KT 3SM -SN BLSN OVC020
     FM031100 33026G35KT 6SM BLSN OVC025
     FM031500 32023G31KT P6SM BKN025=

USA.gov is the U.S. government's official web portal to all federal, state and local government web resources and services.